Pietro Novelli — IOTQ — position and weather

sailwx.info

Track history (hours):
 
Tides and Currents Weather Stations Pressure Air Temp Water Temp Dewpoint Dewpoint Depression Visibility Wind Speed Wind Dir Waves Ship Positions

Pietro Novelli

Last reported at 2017-Jan-23 23:22 UTC. Time now 2017-Jan-24 03:07 UTC.
Position N 37°50' E 012°21'.

Length 91 m; draft 3.7 m.

Type: Ship (hazmat cat A). MMSI: 247000300.

Date/timePositionNaut miles runAvg speedWind from/ knotsBaromVisibWave heightAir tempDewpointWater temp
2017-Jan-23 23:22N 37°50' E 012°21'911.8
2017-Jan-23 22:33N 37°58' E 012°26'4 3.9
2017-Jan-23 21:33N 38°01' E 012°30'0 0.0
2017-Jan-23 20:33N 38°01' E 012°30'0 0.0
2017-Jan-23 19:33N 38°01' E 012°30'0 0.0
2017-Jan-23 18:33N 38°01' E 012°30'0 0.0
2017-Jan-23 17:33N 38°01' E 012°30'2 1.9
2017-Jan-23 16:33N 37°60' E 012°28'  
2017-Jan-21 03:06N 38°01' E 012°30'0 0.0
2017-Jan-21 02:18N 38°01' E 012°30'0 0.0
2017-Jan-21 01:31N 38°01' E 012°30'0 0.0
2017-Jan-21 00:32N 38°01' E 012°30'0 0.0
2017-Jan-20 23:31N 38°01' E 012°30'0 0.0
2017-Jan-20 22:31N 38°01' E 012°30'0 0.0
2017-Jan-20 21:31N 38°01' E 012°30'0 0.0
2017-Jan-20 20:26N 38°01' E 012°30'0 0.0
2017-Jan-20 19:26N 38°01' E 012°30'0 0.0
2017-Jan-20 18:30N 38°01' E 012°30'0 0.0
2017-Jan-20 17:33N 38°01' E 012°30'0 0.0
2017-Jan-20 15:29N 38°01' E 012°30'1 1.4
2017-Jan-20 14:33N 37°60' E 012°29'9 9.5
2017-Jan-20 13:33N 37°53' E 012°21'  
2017-Jan-16 20:31N 38°01' E 012°30'0 0.0
2017-Jan-16 19:31N 38°01' E 012°30'0 0.0
2017-Jan-16 18:31N 38°01' E 012°30'0 0.0
2017-Jan-16 17:31N 38°01' E 012°30'0 0.0
2017-Jan-16 16:31N 38°01' E 012°30'0 0.0
2017-Jan-16 15:31N 38°01' E 012°30'0 0.0
2017-Jan-16 14:31N 38°01' E 012°30'0 0.0
2017-Jan-16 13:07N 38°01' E 012°30'0 0.0
2017-Jan-16 12:07N 38°01' E 012°30'0 0.0
2017-Jan-16 11:19N 38°01' E 012°30'0 0.0
2017-Jan-16 10:25N 38°01' E 012°30'0 0.0
2017-Jan-16 09:25N 38°01' E 012°30'0 0.0
2017-Jan-16 08:25N 38°01' E 012°30'0 0.0
2017-Jan-16 07:31N 38°01' E 012°30'0 0.0
2017-Jan-16 06:31N 38°01' E 012°30'0 0.0
2017-Jan-16 05:31N 38°01' E 012°30'0 0.0
2017-Jan-16 04:28N 38°01' E 012°30'0 0.0
2017-Jan-14 14:26N 38°01' E 012°30'0 0.0
2017-Jan-14 13:26N 38°01' E 012°30'0 0.0
2017-Jan-14 12:26N 38°01' E 012°30'0 0.0
2017-Jan-14 11:26N 38°01' E 012°30'0 0.0
2017-Jan-14 10:26N 38°01' E 012°30'0 0.0
2017-Jan-14 09:23N 38°01' E 012°30'0 0.0
2017-Jan-14 08:29N 38°01' E 012°30'  
Track history (hours):
 
Tides and Currents Weather Stations Pressure Air Temp Water Temp Dewpoint Dewpoint Depression Visibility Wind Speed Wind Dir Waves Ship Positions

Pietro Novelli

Last reported at 2017-Jan-23 23:22 UTC. Time now 2017-Jan-24 03:07 UTC.
Position N 37°50' E 012°21'.

Length 91 m; draft 3.7 m.

Type: Ship (hazmat cat A). MMSI: 247000300.

Date/timePositionNaut miles runAvg speedWind from/ knotsBaromVisibWave heightAir tempDewpointWater temp
2017-Jan-23 23:22N 37°50' E 012°21'911.8
2017-Jan-23 22:33N 37°58' E 012°26'4 3.9
2017-Jan-23 21:33N 38°01' E 012°30'0 0.0
2017-Jan-23 20:33N 38°01' E 012°30'0 0.0
2017-Jan-23 19:33N 38°01' E 012°30'0 0.0
2017-Jan-23 18:33N 38°01' E 012°30'0 0.0
2017-Jan-23 17:33N 38°01' E 012°30'2 1.9
2017-Jan-23 16:33N 37°60' E 012°28'  
2017-Jan-21 03:06N 38°01' E 012°30'0 0.0
2017-Jan-21 02:18N 38°01' E 012°30'0 0.0
2017-Jan-21 01:31N 38°01' E 012°30'0 0.0
2017-Jan-21 00:32N 38°01' E 012°30'0 0.0
2017-Jan-20 23:31N 38°01' E 012°30'0 0.0
2017-Jan-20 22:31N 38°01' E 012°30'0 0.0
2017-Jan-20 21:31N 38°01' E 012°30'0 0.0
2017-Jan-20 20:26N 38°01' E 012°30'0 0.0
2017-Jan-20 19:26N 38°01' E 012°30'0 0.0
2017-Jan-20 18:30N 38°01' E 012°30'0 0.0
2017-Jan-20 17:33N 38°01' E 012°30'0 0.0
2017-Jan-20 15:29N 38°01' E 012°30'1 1.4
2017-Jan-20 14:33N 37°60' E 012°29'9 9.5
2017-Jan-20 13:33N 37°53' E 012°21'  
2017-Jan-16 20:31N 38°01' E 012°30'0 0.0
2017-Jan-16 19:31N 38°01' E 012°30'0 0.0
2017-Jan-16 18:31N 38°01' E 012°30'0 0.0
2017-Jan-16 17:31N 38°01' E 012°30'0 0.0
2017-Jan-16 16:31N 38°01' E 012°30'0 0.0
2017-Jan-16 15:31N 38°01' E 012°30'0 0.0
2017-Jan-16 14:31N 38°01' E 012°30'0 0.0
2017-Jan-16 13:07N 38°01' E 012°30'0 0.0
2017-Jan-16 12:07N 38°01' E 012°30'0 0.0
2017-Jan-16 11:19N 38°01' E 012°30'0 0.0
2017-Jan-16 10:25N 38°01' E 012°30'0 0.0
2017-Jan-16 09:25N 38°01' E 012°30'0 0.0
2017-Jan-16 08:25N 38°01' E 012°30'0 0.0
2017-Jan-16 07:31N 38°01' E 012°30'0 0.0
2017-Jan-16 06:31N 38°01' E 012°30'0 0.0
2017-Jan-16 05:31N 38°01' E 012°30'0 0.0
2017-Jan-16 04:28N 38°01' E 012°30'0 0.0
2017-Jan-14 14:26N 38°01' E 012°30'0 0.0
2017-Jan-14 13:26N 38°01' E 012°30'0 0.0
2017-Jan-14 12:26N 38°01' E 012°30'0 0.0
2017-Jan-14 11:26N 38°01' E 012°30'0 0.0
2017-Jan-14 10:26N 38°01' E 012°30'0 0.0
2017-Jan-14 09:23N 38°01' E 012°30'0 0.0
2017-Jan-14 08:29N 38°01' E 012°30'  

Dump ship's entire track history